createdAt,value
2023-02-11T00:02:29.602Z,27.43
2023-02-11T00:05:01.868Z,27.60
2023-02-11T00:07:43.976Z,26.37
2023-02-11T00:10:11.998Z,26.93
2023-02-11T00:12:45.461Z,26.13
2023-02-11T00:15:16.076Z,26.17
2023-02-11T00:17:46.258Z,26.17
2023-02-11T00:20:13.596Z,26.67
2023-02-11T00:22:41.471Z,25.50
2023-02-11T00:25:08.928Z,20.83
2023-02-11T00:27:37.478Z,22.07
2023-02-11T00:30:06.842Z,21.40
2023-02-11T00:32:34.570Z,20.10
2023-02-11T00:35:01.865Z,20.23
2023-02-11T00:37:29.252Z,18.90
2023-02-11T00:39:59.294Z,19.20
2023-02-11T00:42:27.610Z,17.90
2023-02-11T00:44:55.123Z,18.70
2023-02-11T00:47:24.549Z,18.40
2023-02-11T00:49:54.201Z,19.77
2023-02-11T00:52:21.579Z,19.23
2023-02-11T00:54:48.872Z,18.17
2023-02-11T00:57:16.298Z,18.77
2023-02-11T00:59:43.650Z,19.43
2023-02-11T01:02:13.196Z,19.67
2023-02-11T01:04:45.138Z,19.43
2023-02-11T01:07:31.398Z,18.83
2023-02-11T01:10:03.087Z,20.07
2023-02-11T01:12:30.768Z,20.87
2023-02-11T01:15:00.094Z,20.17
2023-02-11T01:17:27.605Z,20.13
2023-02-11T01:20:03.995Z,19.70
2023-02-11T01:22:36.384Z,19.60
2023-02-11T01:25:09.216Z,19.03
2023-02-11T01:27:37.548Z,20.03
2023-02-11T01:30:10.740Z,19.23
2023-02-11T01:32:41.634Z,19.07
2023-02-11T01:35:20.484Z,19.43
2023-02-11T01:37:51.581Z,18.97
2023-02-11T01:40:28.440Z,19.03
2023-02-11T01:42:58.078Z,19.03
2023-02-11T01:46:06.747Z,18.97
2023-02-11T01:48:37.217Z,18.10
2023-02-11T01:51:11.647Z,17.87
2023-02-11T01:53:58.467Z,18.07
2023-02-11T01:56:50.423Z,18.67
2023-02-11T01:59:21.506Z,18.90
2023-02-11T02:01:54.733Z,17.50
2023-02-11T02:04:27.431Z,18.20
2023-02-11T02:07:03.446Z,17.63
2023-02-11T02:09:34.079Z,17.30
2023-02-11T02:12:04.811Z,18.53
2023-02-11T02:14:32.521Z,19.30
2023-02-11T02:16:59.917Z,19.03
2023-02-11T02:19:30.020Z,18.53
2023-02-11T02:22:00.425Z,18.57
2023-02-11T02:24:49.688Z,17.43
2023-02-11T02:27:35.494Z,17.97
2023-02-11T02:30:17.112Z,18.30
2023-02-11T02:32:54.682Z,18.50
2023-02-11T02:35:30.760Z,18.33
2023-02-11T02:38:02.344Z,19.53
2023-02-11T02:40:37.624Z,18.57
2023-02-11T02:43:16.064Z,18.50
2023-02-11T02:45:46.854Z,18.33
2023-02-11T02:48:28.442Z,17.80
2023-02-11T02:51:04.035Z,17.83
2023-02-11T02:53:31.754Z,15.80
2023-02-11T02:56:00.493Z,17.30
2023-02-11T02:58:47.482Z,17.87
2023-02-11T03:01:36.623Z,17.63
2023-02-11T03:04:22.945Z,17.43
2023-02-11T03:07:00.015Z,15.90
2023-02-11T03:09:32.934Z,16.23
2023-02-11T03:12:03.909Z,16.23
2023-02-11T03:14:48.630Z,15.57
2023-02-11T03:17:44.574Z,15.10
2023-02-11T03:21:05.861Z,14.80
2023-02-11T03:24:01.201Z,16.20
2023-02-11T03:26:30.868Z,15.10
2023-02-11T03:29:19.149Z,16.03
2023-02-11T03:32:01.479Z,14.43
2023-02-11T03:34:37.976Z,14.73
2023-02-11T03:37:18.127Z,15.43
2023-02-11T03:42:33.786Z,14.40
2023-02-11T03:45:07.107Z,15.10
2023-02-11T03:47:37.568Z,14.80
2023-02-11T03:50:06.986Z,15.00
2023-02-11T03:52:49.311Z,16.07
2023-02-11T03:55:24.142Z,14.37
2023-02-11T03:57:57.520Z,15.43
2023-02-11T04:00:36.772Z,15.57
2023-02-11T04:03:04.968Z,15.93
2023-02-11T04:05:33.457Z,15.87
2023-02-11T04:08:01.610Z,14.77
2023-02-11T04:10:31.138Z,16.57
2023-02-11T04:12:59.925Z,16.30
2023-02-11T04:15:28.502Z,17.30
2023-02-11T04:17:55.791Z,17.27
2023-02-11T04:20:24.938Z,17.63
2023-02-11T04:22:55.010Z,17.67
2023-02-11T04:25:22.349Z,17.97
2023-02-11T04:27:49.677Z,18.17
2023-02-11T04:30:16.936Z,18.63
2023-02-11T04:32:44.384Z,18.07
2023-02-11T04:35:12.328Z,18.00
2023-02-11T04:37:42.769Z,18.73
2023-02-11T04:40:11.755Z,19.17
2023-02-11T04:42:40.337Z,18.67
2023-02-11T04:45:28.856Z,18.13
2023-02-11T04:47:59.054Z,18.37
2023-02-11T04:50:37.640Z,18.20
2023-02-11T04:53:30.875Z,18.77
2023-02-11T04:55:59.781Z,19.30
2023-02-11T04:58:27.196Z,19.07
2023-02-11T05:00:54.617Z,19.77
2023-02-11T05:03:21.946Z,18.93
2023-02-11T05:05:51.840Z,19.43
2023-02-11T05:08:19.401Z,20.07
2023-02-11T05:10:51.491Z,19.60
2023-02-11T05:13:19.271Z,20.00
2023-02-11T05:15:46.584Z,19.77
2023-02-11T05:18:15.380Z,20.13
2023-02-11T05:20:43.794Z,18.93
2023-02-11T05:23:11.433Z,19.73
2023-02-11T05:25:39.120Z,20.83
2023-02-11T05:28:07.823Z,20.77
2023-02-11T05:33:19.421Z,19.63
2023-02-11T05:35:49.535Z,20.80
2023-02-11T05:38:18.091Z,20.23
2023-02-11T05:40:48.267Z,19.57
2023-02-11T05:43:15.779Z,21.17
2023-02-11T05:45:43.093Z,20.67
2023-02-11T05:48:10.740Z,20.60
2023-02-11T05:51:10.249Z,19.87
2023-02-11T05:53:38.422Z,21.30
2023-02-11T05:56:05.972Z,21.00
2023-02-11T05:58:33.438Z,20.50
2023-02-11T06:01:02.348Z,18.83
2023-02-11T06:03:30.260Z,20.90
2023-02-11T06:05:57.551Z,21.27
2023-02-11T06:08:25.376Z,20.47
2023-02-11T06:10:52.719Z,20.10
2023-02-11T06:13:21.353Z,21.60
2023-02-11T06:15:57.308Z,21.17
2023-02-11T06:18:24.687Z,21.90
2023-02-11T06:20:52.504Z,22.27
2023-02-11T06:23:19.783Z,20.10
2023-02-11T06:25:47.873Z,20.63
2023-02-11T06:28:17.522Z,23.27
2023-02-11T06:30:47.797Z,22.97
2023-02-11T06:33:15.158Z,22.97
2023-02-11T06:35:44.952Z,22.10
2023-02-11T06:38:13.656Z,21.20
2023-02-11T06:40:40.945Z,21.77
2023-02-11T06:43:10.735Z,17.40
2023-02-11T06:45:40.089Z,22.43
2023-02-11T06:48:12.472Z,23.80
2023-02-11T06:50:43.552Z,23.97
2023-02-11T06:53:12.824Z,23.80
2023-02-11T06:55:40.594Z,22.27
2023-02-11T06:58:07.983Z,24.27
2023-02-11T07:00:37.426Z,24.70
2023-02-11T07:03:06.970Z,24.83
2023-02-11T07:06:06.206Z,25.63
2023-02-11T07:08:41.173Z,22.80
2023-02-11T07:11:24.346Z,20.53
2023-02-11T07:13:52.920Z,26.10
2023-02-11T07:16:23.976Z,25.50
2023-02-11T07:18:51.467Z,23.87
2023-02-11T07:21:22.884Z,25.50
2023-02-11T07:23:52.081Z,25.90
2023-02-11T07:26:25.393Z,26.73
2023-02-11T07:28:55.645Z,28.97
2023-02-11T07:31:25.537Z,25.73
2023-02-11T07:33:56.520Z,28.50
2023-02-11T07:36:25.966Z,26.73
2023-02-11T07:38:54.155Z,35.45
2023-02-11T07:41:22.798Z,29.07
2023-02-11T07:43:50.576Z,28.97
2023-02-11T07:46:23.843Z,30.43
2023-02-11T07:48:54.447Z,29.70
2023-02-11T07:51:26.322Z,29.13
2023-02-11T07:53:58.683Z,30.70
2023-02-11T07:56:31.603Z,28.23
2023-02-11T07:59:03.624Z,29.10
2023-02-11T08:01:34.293Z,31.10
2023-02-11T08:04:04.870Z,30.80
2023-02-11T08:06:35.260Z,27.03
2023-02-11T08:09:15.149Z,31.17
2023-02-11T08:11:45.001Z,30.50
2023-02-11T08:14:12.929Z,28.17
2023-02-11T08:16:42.840Z,30.93
2023-02-11T08:19:14.567Z,32.77
2023-02-11T08:21:42.548Z,33.37
2023-02-11T08:24:10.612Z,28.40
2023-02-11T08:26:39.616Z,31.70
2023-02-11T08:29:12.190Z,31.03
2023-02-11T08:31:43.117Z,31.80
2023-02-11T08:34:15.245Z,33.53
2023-02-11T08:36:45.476Z,34.33
2023-02-11T08:39:21.408Z,33.03
2023-02-11T08:41:51.806Z,34.60
2023-02-11T08:44:24.219Z,33.23
2023-02-11T08:46:55.023Z,33.67
2023-02-11T08:49:24.152Z,33.17
2023-02-11T08:51:51.940Z,31.03
2023-02-11T08:54:27.315Z,34.80
2023-02-11T08:56:57.935Z,32.83
2023-02-11T08:59:29.219Z,30.87
2023-02-11T09:01:58.143Z,32.63
2023-02-11T09:04:25.671Z,33.70
2023-02-11T09:06:54.101Z,35.13
2023-02-11T09:09:26.451Z,31.60
2023-02-11T09:11:57.225Z,29.70
2023-02-11T09:14:25.839Z,31.47
2023-02-11T09:16:53.637Z,32.73
2023-02-11T09:19:21.569Z,33.93
2023-02-11T09:21:49.152Z,31.30
2023-02-11T09:24:18.450Z,32.53
2023-02-11T09:26:45.824Z,33.97
2023-02-11T09:29:14.324Z,32.13
2023-02-11T09:31:48.361Z,34.40
2023-02-11T09:34:20.942Z,31.50
2023-02-11T09:36:52.722Z,33.47
2023-02-11T09:39:21.823Z,33.57
2023-02-11T09:42:18.314Z,33.73
2023-02-11T09:44:47.221Z,34.47
2023-02-11T09:47:26.442Z,34.57
2023-02-11T09:49:58.481Z,32.70
2023-02-11T09:52:31.363Z,35.03
2023-02-11T09:55:00.948Z,34.37
2023-02-11T09:57:33.857Z,34.67
2023-02-11T10:00:03.182Z,30.17
2023-02-11T10:02:50.338Z,35.17
2023-02-11T10:05:39.146Z,34.00
2023-02-11T10:08:16.931Z,32.60
2023-02-11T10:10:55.868Z,34.43
2023-02-11T10:13:27.260Z,37.37
2023-02-11T10:16:05.253Z,36.00
2023-02-11T10:18:42.519Z,35.47
2023-02-11T10:21:09.823Z,36.97
2023-02-11T10:23:40.249Z,34.17
2023-02-11T10:26:29.197Z,35.67
2023-02-11T10:29:00.644Z,35.40
2023-02-11T10:31:44.249Z,36.30
2023-02-11T10:34:14.110Z,35.73
2023-02-11T10:36:44.490Z,35.60
2023-02-11T10:39:22.939Z,35.33
2023-02-11T10:41:54.196Z,36.07
2023-02-11T10:44:24.431Z,35.57
2023-02-11T10:46:53.156Z,35.97
2023-02-11T10:49:39.293Z,34.77
2023-02-11T10:52:37.214Z,34.50
2023-02-11T10:55:10.375Z,37.23
2023-02-11T10:57:46.144Z,35.97
2023-02-11T11:00:19.333Z,36.90
2023-02-11T11:02:49.280Z,37.33
2023-02-11T11:05:21.703Z,37.53
2023-02-11T11:08:05.165Z,34.80
2023-02-11T11:10:44.035Z,33.90
2023-02-11T11:13:26.101Z,35.73
2023-02-11T11:16:12.899Z,35.23
2023-02-11T11:18:44.105Z,40.73
2023-02-11T11:21:22.864Z,35.97
2023-02-11T11:23:55.967Z,38.60
2023-02-11T11:26:31.250Z,35.60
2023-02-11T11:29:03.397Z,38.83
2023-02-11T11:31:35.148Z,39.20
2023-02-11T11:34:25.052Z,36.27
2023-02-11T11:36:54.812Z,36.97
2023-02-11T11:39:41.267Z,35.83
2023-02-11T11:45:27.593Z,40.73
2023-02-11T11:48:07.139Z,38.13
2023-02-11T11:50:44.584Z,40.43
2023-02-11T11:53:25.494Z,41.87
2023-02-11T11:55:58.580Z,40.03
2023-02-11T11:58:29.398Z,36.37
2023-02-11T12:01:11.136Z,42.27
2023-02-11T12:03:58.152Z,41.00
2023-02-11T12:06:29.563Z,42.13
2023-02-11T12:09:12.589Z,39.47
2023-02-11T12:11:58.625Z,40.03
2023-02-11T12:14:30.777Z,37.40
2023-02-11T12:17:02.435Z,42.93
2023-02-11T12:19:30.792Z,37.00
2023-02-11T12:22:02.295Z,39.93
2023-02-11T12:24:29.723Z,44.10
2023-02-11T12:27:08.117Z,37.70
2023-02-11T12:29:46.136Z,41.03
2023-02-11T12:32:33.480Z,41.23
2023-02-11T12:35:20.432Z,37.87
2023-02-11T12:38:08.931Z,44.83
2023-02-11T12:40:42.862Z,43.47
2023-02-11T12:43:27.245Z,44.37
2023-02-11T12:45:55.650Z,45.03
2023-02-11T12:48:23.085Z,44.97
2023-02-11T12:50:59.383Z,42.53
2023-02-11T12:53:34.656Z,38.33
2023-02-11T12:56:17.045Z,43.80
2023-02-11T12:58:50.945Z,43.80
2023-02-11T13:01:30.899Z,39.93
2023-02-11T13:04:12.829Z,42.30
2023-02-11T13:06:57.451Z,42.63
2023-02-11T13:09:40.401Z,44.33
2023-02-11T13:12:32.519Z,45.20
2023-02-11T13:15:03.063Z,42.30
2023-02-11T13:17:35.791Z,43.10
2023-02-11T13:20:10.268Z,44.53
2023-02-11T13:22:48.161Z,45.03
2023-02-11T13:25:36.576Z,44.77
2023-02-11T13:28:18.489Z,46.27
2023-02-11T13:30:52.812Z,44.83
2023-02-11T13:33:22.161Z,46.50
2023-02-11T13:36:09.744Z,48.33
2023-02-11T13:38:39.991Z,44.70
2023-02-11T13:41:16.634Z,45.73
2023-02-11T13:43:45.385Z,46.23
2023-02-11T13:46:14.181Z,44.57
2023-02-11T13:48:48.597Z,42.20
2023-02-11T13:51:17.101Z,46.20
2023-02-11T13:53:54.259Z,46.00
2023-02-11T13:56:29.657Z,45.40
2023-02-11T13:58:59.608Z,45.20
2023-02-11T14:02:09.771Z,47.03
2023-02-11T14:04:55.981Z,46.20
2023-02-11T14:07:45.033Z,44.30
2023-02-11T14:10:45.860Z,45.60
2023-02-11T14:13:25.779Z,48.93
2023-02-11T14:16:22.591Z,49.57
2023-02-11T14:18:55.539Z,46.50
2023-02-11T14:21:37.821Z,48.00
2023-02-11T14:24:05.378Z,47.40
2023-02-11T14:26:42.628Z,43.57
2023-02-11T14:29:09.909Z,47.23
2023-02-11T14:31:45.676Z,43.30
2023-02-11T14:34:31.507Z,44.27
2023-02-11T14:37:18.931Z,44.27
2023-02-11T14:40:00.669Z,42.17
2023-02-11T14:42:31.284Z,43.57
2023-02-11T14:45:05.404Z,41.20
2023-02-11T14:47:39.138Z,42.97
2023-02-11T14:50:16.677Z,44.40
2023-02-11T14:52:47.331Z,44.00
2023-02-11T14:55:36.543Z,43.50
2023-02-11T14:58:21.018Z,42.43
2023-02-11T15:01:20.078Z,43.13
2023-02-11T15:03:49.610Z,42.53
2023-02-11T15:06:25.428Z,44.17
2023-02-11T15:08:57.401Z,42.80
2023-02-11T15:11:34.180Z,44.40
2023-02-11T15:14:09.909Z,41.87
2023-02-11T15:16:44.118Z,43.87
2023-02-11T15:19:58.391Z,43.63
2023-02-11T15:22:29.588Z,42.90
2023-02-11T15:25:05.002Z,45.17
2023-02-11T15:27:46.682Z,44.13
2023-02-11T15:30:23.121Z,45.20
2023-02-11T15:32:51.211Z,44.27
2023-02-11T15:35:19.420Z,42.77
2023-02-11T15:37:50.673Z,43.70
2023-02-11T15:40:23.051Z,41.47
2023-02-11T15:43:09.329Z,45.70
2023-02-11T15:45:41.812Z,42.33
2023-02-11T15:48:20.470Z,47.03
2023-02-11T15:50:55.545Z,43.70
2023-02-11T15:53:23.535Z,41.17
2023-02-11T15:55:52.539Z,43.77
2023-02-11T15:58:20.213Z,42.17
2023-02-11T16:00:49.811Z,45.57
2023-02-11T16:03:29.791Z,43.57
2023-02-11T16:05:57.207Z,41.27
2023-02-11T16:08:26.116Z,42.60
2023-02-11T16:10:58.788Z,40.83
2023-02-11T16:13:33.709Z,41.20
2023-02-11T16:16:04.842Z,37.17
2023-02-11T16:18:40.210Z,43.10
2023-02-11T16:21:14.714Z,40.07
2023-02-11T16:23:42.480Z,40.70
2023-02-11T16:26:30.289Z,37.90
2023-02-11T16:29:23.772Z,38.57
2023-02-11T16:31:59.525Z,38.80
2023-02-11T16:34:26.912Z,39.93
2023-02-11T16:36:55.616Z,39.47
2023-02-11T16:39:23.761Z,37.33
2023-02-11T16:41:51.989Z,34.97
2023-02-11T16:44:19.627Z,37.77
2023-02-11T16:46:49.180Z,37.23
2023-02-11T16:49:23.895Z,40.57
2023-02-11T16:51:57.299Z,38.63
2023-02-11T16:54:35.817Z,36.43
2023-02-11T16:57:11.704Z,37.00
2023-02-11T16:59:42.270Z,37.73
2023-02-11T17:02:25.237Z,36.73
2023-02-11T17:04:57.881Z,35.90
2023-02-11T17:07:27.086Z,34.67
2023-02-11T17:09:55.870Z,35.93
2023-02-11T17:12:26.746Z,36.20
2023-02-11T17:14:54.817Z,38.20
2023-02-11T17:17:24.109Z,36.50
2023-02-11T17:22:41.601Z,35.43
2023-02-11T17:25:10.792Z,36.10
2023-02-11T17:27:39.867Z,34.30
2023-02-11T17:30:07.537Z,36.20
2023-02-11T17:32:35.852Z,34.70
2023-02-11T17:35:08.676Z,34.70
2023-02-11T17:37:36.193Z,34.47
2023-02-11T17:40:09.374Z,32.97
2023-02-11T17:42:39.946Z,32.20
2023-02-11T17:45:08.506Z,33.23
2023-02-11T17:47:36.542Z,32.07
2023-02-11T17:50:08.685Z,29.87
2023-02-11T17:52:37.847Z,27.93
2023-02-11T17:55:08.221Z,29.87
2023-02-11T17:57:35.903Z,31.60
2023-02-11T18:02:45.744Z,27.70
2023-02-11T18:05:20.188Z,29.73
2023-02-11T18:08:10.436Z,28.10
2023-02-11T18:10:40.189Z,27.30
2023-02-11T18:13:13.074Z,27.20
2023-02-11T18:15:41.606Z,28.10
2023-02-11T18:18:11.107Z,23.80
2023-02-11T18:20:38.594Z,24.33
2023-02-11T18:23:09.764Z,24.37
2023-02-11T18:25:37.319Z,23.97
2023-02-11T18:28:04.715Z,25.10
2023-02-11T18:30:34.712Z,25.23
2023-02-11T18:33:07.476Z,25.00
2023-02-11T18:35:38.160Z,22.27
2023-02-11T18:38:07.148Z,25.00
2023-02-11T18:40:38.387Z,24.20
2023-02-11T18:43:07.130Z,23.57
2023-02-11T18:45:35.099Z,22.43
2023-02-11T18:48:06.245Z,22.33
2023-02-11T18:50:33.815Z,22.00
2023-02-11T18:53:02.449Z,22.23
2023-02-11T18:55:32.001Z,22.90
2023-02-11T18:57:59.482Z,22.53
2023-02-11T19:00:28.550Z,22.17
2023-02-11T19:02:55.857Z,20.77
2023-02-11T19:05:23.191Z,21.90
2023-02-11T19:07:51.848Z,22.57
2023-02-11T19:10:20.240Z,22.17
2023-02-11T19:12:48.703Z,21.43
2023-02-11T19:15:16.467Z,21.83
2023-02-11T19:17:43.750Z,20.03
2023-02-11T19:20:11.437Z,20.83
2023-02-11T19:22:38.868Z,20.77
2023-02-11T19:25:07.286Z,19.33
2023-02-11T19:27:34.944Z,19.53
2023-02-11T19:30:02.464Z,20.30
2023-02-11T19:32:31.042Z,19.53
2023-02-11T19:34:58.414Z,18.90
2023-02-11T19:37:27.415Z,20.50
2023-02-11T19:39:54.761Z,19.80
2023-02-11T19:42:22.387Z,18.20
2023-02-11T19:44:49.767Z,17.90
2023-02-11T19:47:18.345Z,18.00
2023-02-11T19:49:45.724Z,18.77
2023-02-11T19:52:13.239Z,18.43
2023-02-11T19:54:40.574Z,17.70
2023-02-11T19:57:08.004Z,17.90
2023-02-11T19:59:35.428Z,19.03
2023-02-11T20:02:04.270Z,18.83
2023-02-11T20:04:34.936Z,17.77
2023-02-11T20:07:02.788Z,17.60
2023-02-11T20:09:31.821Z,17.27
2023-02-11T20:12:00.827Z,17.17
2023-02-11T20:14:28.366Z,18.13
2023-02-11T20:16:55.748Z,17.77
2023-02-11T20:19:27.074Z,17.90
2023-02-11T20:21:58.053Z,17.17
2023-02-11T20:24:26.520Z,17.17
2023-02-11T20:26:57.344Z,18.43
2023-02-11T20:29:32.053Z,16.67
2023-02-11T20:32:01.627Z,17.60
2023-02-11T20:34:34.653Z,16.77
2023-02-11T20:37:05.863Z,16.97
2023-02-11T20:39:33.911Z,16.37
2023-02-11T20:42:01.721Z,17.57
2023-02-11T20:44:29.725Z,15.90
2023-02-11T20:46:57.300Z,16.57
2023-02-11T20:49:25.564Z,16.27
2023-02-11T20:51:54.162Z,17.93
2023-02-11T20:54:24.145Z,16.57
2023-02-11T20:56:52.853Z,15.93
2023-02-11T20:59:24.201Z,17.10
2023-02-11T21:01:56.035Z,17.73
2023-02-11T21:04:25.832Z,15.53
2023-02-11T21:06:54.983Z,14.43
2023-02-11T21:09:25.031Z,16.37
2023-02-11T21:11:53.964Z,16.10
2023-02-11T21:14:26.077Z,16.23
2023-02-11T21:16:55.872Z,14.97
2023-02-11T21:19:27.264Z,16.03
2023-02-11T21:21:57.369Z,17.03
2023-02-11T21:24:25.012Z,11.53
2023-02-11T21:26:52.353Z,9.70
2023-02-11T21:29:19.671Z,6.70
2023-02-11T21:31:47.656Z,4.43
2023-02-11T21:34:16.251Z,3.93
2023-02-11T21:36:45.649Z,3.90
2023-02-11T21:39:13.792Z,3.40
2023-02-11T21:41:43.649Z,3.80
2023-02-11T21:44:11.252Z,3.47
2023-02-11T21:46:38.688Z,2.97
2023-02-11T21:49:06.193Z,2.60
2023-02-11T21:51:33.559Z,2.90
2023-02-11T21:54:03.508Z,2.40
2023-02-11T21:56:35.362Z,2.30
2023-02-11T21:59:05.411Z,2.67
2023-02-11T22:01:35.624Z,2.00
2023-02-11T22:04:03.435Z,2.23
2023-02-11T22:06:35.633Z,2.47
2023-02-11T22:09:05.452Z,2.70
2023-02-11T22:11:32.906Z,2.80
2023-02-11T22:14:00.482Z,2.90
2023-02-11T22:16:28.746Z,3.10
2023-02-11T22:19:01.342Z,3.17
2023-02-11T22:21:33.258Z,3.27
2023-02-11T22:24:00.600Z,3.13
2023-02-11T22:26:29.061Z,2.73
2023-02-11T22:28:56.736Z,2.93
2023-02-11T22:31:29.093Z,2.80
2023-02-11T22:33:57.448Z,3.93
2023-02-11T22:36:27.548Z,2.50
2023-02-11T22:38:56.120Z,2.57
2023-02-11T22:41:25.983Z,2.30
2023-02-11T22:43:54.643Z,2.93
2023-02-11T22:46:23.223Z,2.30
2023-02-11T22:48:50.699Z,2.27
2023-02-11T22:51:20.824Z,2.27
2023-02-11T22:53:55.851Z,2.30
2023-02-11T22:56:23.408Z,2.50
2023-02-11T22:58:53.717Z,2.40
2023-02-11T23:01:21.308Z,2.10
2023-02-11T23:03:48.694Z,2.00
2023-02-11T23:06:16.097Z,1.80
2023-02-11T23:08:43.554Z,1.43
2023-02-11T23:11:13.303Z,2.07
2023-02-11T23:13:41.466Z,1.60
2023-02-11T23:16:16.438Z,1.80
2023-02-11T23:18:44.564Z,1.73
2023-02-11T23:21:13.586Z,2.07
2023-02-11T23:23:41.192Z,1.87
2023-02-11T23:26:12.780Z,1.47
